EST,Max TemperatureF,Mean TemperatureF,Min TemperatureF,Max Dew PointF,MeanDew PointF,Min DewpointF,Max Humidity, Mean Humidity, Min Humidity, Max Sea Level PressureIn, Mean Sea Level PressureIn, Min Sea Level PressureIn, Max VisibilityMiles, Mean VisibilityMiles, Min VisibilityMiles, Max Wind SpeedMPH, Mean Wind SpeedMPH, Max Gust SpeedMPH,PrecipitationIn, CloudCover, Events, WindDirDegrees
2012-11-1,56,50,43,40,39,38,81,67,52,29.78,29.72,29.68,10,10,10,10,5,,0.00,6,,284
2012-11-2,58,48,40,38,34,31,79,60,36,29.95,29.83,29.77,10,10,10,18,7,29,0.00,2,,293
2012-11-3,53,48,42,36,33,31,79,61,48,30.11,30.03,29.95,10,10,10,13,6,18,0.00,3,,334
2012-11-4,50,44,38,39,35,32,93,67,54,30.11,30.06,30.00,10,10,10,7,3,,0.00,6,Rain,3
2012-11-5,50,43,36,37,32,29,84,67,44,30.15,30.08,30.03,10,10,10,12,4,17,0.00,0,,9
2012-11-6,48,42,36,41,36,32,88,74,57,30.16,30.02,29.88,10,10,10,12,6,20,0.00,5,Rain,12
2012-11-7,46,44,41,42,37,34,93,79,65,29.90,29.86,29.82,10,10,10,13,10,21,0.05,8,Rain,355
2012-11-8,57,48,40,36,29,18,84,59,23,30.07,29.93,29.89,10,10,10,16,9,26,0.00,5,Rain,329
2012-11-9,57,48,40,39,35,28,95,65,46,30.25,30.19,30.07,10,10,10,12,6,18,0.00,0,,328
2012-11-10,68,52,37,45,40,36,97,69,34,30.40,30.32,30.25,10,10,10,8,2,,0.00,0,,153
2012-11-11,70,57,44,47,43,41,88,66,40,30.50,30.45,30.40,10,10,10,6,5,,0.00,0,,163
2012-11-12,74,61,48,60,55,48,96,80,56,30.45,30.34,30.20,10,10,8,12,6,,0.00,1,,153
2012-11-13,63,53,43,61,45,33,94,88,65,30.43,30.33,30.17,10,8,2,15,7,28,0.36,8,Rain,10
2012-11-14,50,44,37,35,33,31,83,68,50,30.49,30.45,30.40,10,10,10,10,7,,0.00,2,,11
2012-11-15,53,47,41,43,39,33,92,77,64,30.36,30.30,30.27,10,10,10,9,5,,0.07,5,Rain,13
2012-11-16,53,46,38,43,37,31,93,73,43,30.40,30.31,30.26,10,10,7,9,5,,0.01,3,Rain,7
2012-11-17,55,47,39,45,40,34,87,72,55,30.52,30.49,30.40,10,10,10,12,6,,0.00,3,,22
2012-11-18,58,53,48,46,45,43,87,76,62,30.50,30.44,30.38,10,10,10,14,9,23,0.00,4,,38
2012-11-19,52,50,49,46,45,43,84,80,76,30.38,30.28,30.17,10,10,10,14,10,21,0.00,8,,15
2012-11-20,55,50,45,46,44,42,91,78,61,30.17,30.13,30.08,10,10,10,7,5,,0.00,7,,14
2012-11-21,57,50,42,44,41,36,95,73,52,30.19,30.14,30.09,10,10,10,13,6,20,0.00,2,,14
2012-11-22,59,50,40,40,38,37,89,71,45,30.23,30.18,30.15,10,10,10,10,5,17,0.00,0,,8
2012-11-23,63,49,35,44,38,36,100,86,38,30.14,30.05,29.79,10,4,0,9,1,,0.00,1,Fog,252
2012-11-24,53,45,36,38,24,19,56,46,37,30.09,29.96,29.81,10,10,10,14,10,23,0.00,0,,332
2012-11-25,47,38,30,26,23,19,75,53,35,30.15,30.07,30.01,10,10,10,10,4,,0.00,0,,229
2012-11-26,54,45,36,37,31,25,84,59,35,30.22,30.16,30.05,10,10,10,6,3,,0.00,0,,161
2012-11-27,50,44,39,43,41,36,93,82,66,30.23,30.17,30.10,10,9,6,12,6,18,0.14,7,Rain,334
2012-11-28,48,40,32,36,32,26,95,76,48,30.38,30.29,30.22,10,10,10,13,6,18,0.00,2,,341
2012-11-29,50,40,29,33,30,26,94,74,44,30.48,30.42,30.38,10,10,7,8,1,,0.00,0,,136
2012-11-30,58,46,34,39,35,30,85,67,45,30.40,30.35,30.30,10,10,10,9,4,,0.00,0,,177